Time;durP1;ratioP1;P1;durP2;ratioP2;P2;SDS_P1;SDS_P2;PMS_P1;PMS_P2;Temp;Humidity;BMP_temperature;BMP_pressure;BME280_temperature;BME280_humidity;BME280_pressure;Samples;Min_cycle;Max_cycle;Signal;HPM_P1;HPM_P2
2023/11/29 00:00:36;;;;;;;13.53;9.73;;;3.70;91.50;;;;;;10445206;28;20220;-65
2023/11/29 00:05:42;;;;;;;11.00;8.27;;;3.70;90.30;;;;;;10444521;28;20582;-65
2023/11/29 00:10:48;;;;;;;11.43;9.00;;;3.70;90.80;;;;;;10447625;28;20226;-65
2023/11/29 00:15:52;;;;;;;9.83;8.27;;;3.70;91.20;;;;;;10446193;28;20621;-65
2023/11/29 00:21:01;;;;;;;10.77;7.43;;;3.80;90.70;;;;;;10447293;28;20225;-64
2023/11/29 00:26:05;;;;;;;11.23;7.97;;;3.80;91.10;;;;;;10445121;28;20198;-64
2023/11/29 00:31:08;;;;;;;11.57;8.50;;;3.80;90.90;;;;;;10448090;28;20223;-64
2023/11/29 00:36:13;;;;;;;9.47;7.53;;;3.80;91.00;;;;;;10446284;28;20200;-64
2023/11/29 00:41:17;;;;;;;10.47;7.80;;;3.90;90.50;;;;;;10445753;28;20227;-64
2023/11/29 00:46:21;;;;;;;9.17;7.97;;;3.80;91.00;;;;;;10443013;28;20222;-64
2023/11/29 00:51:26;;;;;;;8.53;7.50;;;3.80;90.30;;;;;;10443760;28;20219;-64
2023/11/29 00:56:30;;;;;;;10.10;7.17;;;3.80;90.10;;;;;;10438300;28;20208;-65
2023/11/29 01:01:33;;;;;;;11.43;7.60;;;3.80;90.60;;;;;;10444819;28;20690;-64
2023/11/29 01:06:41;;;;;;;9.27;7.40;;;3.80;90.50;;;;;;10442239;28;20215;-64
2023/11/29 01:11:44;;;;;;;9.97;7.83;;;3.90;90.70;;;;;;10447641;28;20244;-65
2023/11/29 01:16:48;;;;;;;9.67;7.47;;;3.90;91.00;;;;;;10441828;28;20561;-64
2023/11/29 01:21:53;;;;;;;9.03;7.03;;;3.80;90.40;;;;;;10442206;28;20223;-65
2023/11/29 01:26:57;;;;;;;8.57;6.87;;;3.90;92.10;;;;;;10436828;28;20722;-64
2023/11/29 01:32:01;;;;;;;9.50;7.17;;;3.90;90.90;;;;;;10433234;28;20280;-64
2023/11/29 01:37:06;;;;;;;7.70;6.33;;;3.80;90.70;;;;;;10445483;28;20750;-64
2023/11/29 01:42:09;;;;;;;8.83;6.23;;;3.80;90.20;;;;;;10441917;28;20234;-64
2023/11/29 01:47:16;;;;;;;11.30;7.17;;;3.80;90.20;;;;;;10448373;28;20639;-65
2023/11/29 01:52:21;;;;;;;7.83;6.63;;;3.80;90.70;;;;;;10442408;28;20235;-65
2023/11/29 01:57:25;;;;;;;8.33;6.63;;;3.80;90.30;;;;;;10443183;28;20222;-65
2023/11/29 02:02:29;;;;;;;10.23;7.67;;;3.80;90.40;;;;;;10438319;28;20218;-64
2023/11/29 02:07:34;;;;;;;9.60;7.20;;;3.80;91.50;;;;;;10444685;28;20211;-64
2023/11/29 02:12:38;;;;;;;10.37;6.93;;;3.80;90.40;;;;;;10443877;28;20605;-64
2023/11/29 02:17:41;;;;;;;8.50;7.13;;;3.80;91.10;;;;;;10450243;28;20227;-64
2023/11/29 02:22:56;;;;;;;11.60;7.10;;;3.80;90.70;;;;;;10457181;28;20285;-66
2023/11/29 02:28:01;;;;;;;10.43;7.33;;;3.80;90.70;;;;;;10445701;28;20728;-64
2023/11/29 02:33:05;;;;;;;8.47;6.60;;;3.80;90.30;;;;;;10452729;28;20692;-64
2023/11/29 02:38:09;;;;;;;9.30;7.17;;;3.80;90.10;;;;;;10449593;28;20211;-64
2023/11/29 02:43:15;;;;;;;10.70;7.40;;;3.80;90.10;;;;;;10454698;28;20594;-64
2023/11/29 02:48:18;;;;;;;10.73;7.73;;;3.80;89.60;;;;;;10442873;28;20203;-64
2023/11/29 02:53:22;;;;;;;9.40;7.63;;;3.80;90.30;;;;;;10443823;28;20224;-64
2023/11/29 02:58:27;;;;;;;10.93;7.80;;;3.80;90.80;;;;;;10444559;28;20217;-64
2023/11/29 03:03:31;;;;;;;10.47;7.83;;;3.80;90.40;;;;;;10436543;28;20233;-64
2023/11/29 03:08:34;;;;;;;12.70;8.43;;;3.70;90.60;;;;;;10446621;28;20203;-64
2023/11/29 03:13:39;;;;;;;11.60;8.93;;;3.70;90.70;;;;;;10451548;28;20231;-64
2023/11/29 03:18:43;;;;;;;11.53;8.07;;;3.70;90.90;;;;;;10448823;28;20216;-64
2023/11/29 03:23:46;;;;;;;12.37;8.57;;;3.60;91.60;;;;;;10445490;28;20230;-64
2023/11/29 03:28:52;;;;;;;12.17;8.97;;;3.60;92.20;;;;;;10448101;28;20630;-64
2023/11/29 03:33:55;;;;;;;13.43;9.40;;;3.60;92.50;;;;;;10446876;28;20694;-64
2023/11/29 03:38:59;;;;;;;13.33;9.40;;;3.60;92.20;;;;;;10443770;28;20219;-64
2023/11/29 03:44:04;;;;;;;12.07;9.87;;;3.60;93.50;;;;;;10441526;28;20223;-64
2023/11/29 03:49:07;;;;;;;16.40;10.90;;;3.70;93.20;;;;;;10448199;28;20199;-63
2023/11/29 03:54:11;;;;;;;14.10;9.87;;;3.60;94.30;;;;;;10442599;28;20226;-64
2023/11/29 03:59:16;;;;;;;14.53;10.30;;;3.60;93.80;;;;;;10443812;28;20284;-64
2023/11/29 04:04:20;;;;;;;14.77;10.97;;;3.70;94.70;;;;;;10447684;28;20226;-64
2023/11/29 04:09:24;;;;;;;13.93;10.00;;;3.70;94.20;;;;;;10444399;28;20203;-64
2023/11/29 04:14:29;;;;;;;13.17;9.43;;;3.80;94.60;;;;;;10449346;28;20272;-64
2023/11/29 04:19:33;;;;;;;14.50;10.67;;;3.70;93.90;;;;;;10442028;28;20756;-62
2023/11/29 04:24:37;;;;;;;12.93;9.90;;;3.70;94.60;;;;;;10443219;28;20223;-62
2023/11/29 04:29:42;;;;;;;12.20;9.97;;;3.70;94.20;;;;;;10444561;28;20207;-62
2023/11/29 04:34:46;;;;;;;13.90;10.37;;;3.70;94.90;;;;;;10446319;28;20250;-63
2023/11/29 04:39:53;;;;;;;14.07;9.93;;;3.70;96.60;;;;;;10437793;28;20223;-62
2023/11/29 04:44:58;;;;;;;14.80;9.50;;;3.70;95.50;;;;;;10442473;28;20207;-63
2023/11/29 04:50:01;;;;;;;11.43;8.93;;;3.70;95.70;;;;;;10442644;28;20222;-63
2023/11/29 04:55:07;;;;;;;12.60;9.23;;;3.70;96.30;;;;;;10440828;28;20724;-64
2023/11/29 05:00:13;;;;;;;10.70;8.50;;;3.70;96.00;;;;;;10439167;28;20245;-64
2023/11/29 05:05:17;;;;;;;12.23;9.40;;;3.70;95.80;;;;;;10447864;28;20218;-64
2023/11/29 05:10:21;;;;;;;10.80;9.00;;;3.70;96.30;;;;;;10439610;28;20230;-62
2023/11/29 05:15:26;;;;;;;11.23;8.97;;;3.70;96.30;;;;;;10446135;28;20206;-63
2023/11/29 05:20:36;;;;;;;10.73;8.53;;;3.70;96.60;;;;;;10446217;28;20231;-63
2023/11/29 05:25:40;;;;;;;12.43;8.80;;;3.70;96.30;;;;;;10447575;28;20237;-63
2023/11/29 05:30:45;;;;;;;10.70;8.67;;;3.70;96.70;;;;;;10449202;28;20514;-63
2023/11/29 05:35:49;;;;;;;11.37;9.13;;;3.70;96.00;;;;;;10449031;28;20211;-63
2023/11/29 05:40:53;;;;;;;11.70;9.07;;;3.70;96.40;;;;;;10449680;28;20636;-63
2023/11/29 05:45:58;;;;;;;13.77;10.20;;;3.70;96.90;;;;;;10445108;28;20202;-61
2023/11/29 05:51:01;;;;;;;12.93;9.73;;;3.80;97.00;;;;;;10447023;28;20241;-63
2023/11/29 05:56:06;;;;;;;13.97;11.07;;;3.80;96.70;;;;;;10447473;28;20202;-61
2023/11/29 06:01:11;;;;;;;13.43;10.03;;;3.80;97.00;;;;;;10449369;28;20228;-62
2023/11/29 06:06:15;;;;;;;13.00;10.37;;;3.80;96.50;;;;;;10443512;28;20214;-62
2023/11/29 06:11:18;;;;;;;12.70;9.60;;;3.80;96.80;;;;;;10450168;28;20226;-66
2023/11/29 06:16:26;;;;;;;14.73;9.53;;;3.80;96.90;;;;;;10453719;28;20201;-59
2023/11/29 06:21:29;;;;;;;16.07;11.30;;;3.70;97.00;;;;;;10464397;28;20280;-61
2023/11/29 06:26:33;;;;;;;16.27;11.10;;;3.80;97.00;;;;;;10451893;28;20206;-61
2023/11/29 06:31:38;;;;;;;16.93;11.33;;;3.80;97.70;;;;;;10451340;28;20292;-61
2023/11/29 06:36:42;;;;;;;15.20;11.40;;;3.90;97.40;;;;;;10455043;28;20281;-61
2023/11/29 06:41:47;;;;;;;14.93;10.87;;;3.90;98.10;;;;;;10454852;28;20287;-61
2023/11/29 06:46:54;;;;;;;16.50;11.37;;;4.00;96.70;;;;;;10459692;28;20257;-61
2023/11/29 06:51:58;;;;;;;16.57;13.13;;;3.90;97.10;;;;;;10446663;28;20699;-61
2023/11/29 06:57:02;;;;;;;14.03;10.63;;;3.90;97.10;;;;;;10465057;28;20739;-62
2023/11/29 07:02:07;;;;;;;15.90;11.50;;;4.00;97.50;;;;;;10462241;28;20231;-61
2023/11/29 07:07:10;;;;;;;18.20;11.90;;;3.90;97.00;;;;;;10463125;28;20740;-61
2023/11/29 07:12:14;;;;;;;17.43;11.13;;;4.00;97.20;;;;;;10465693;28;20230;-62
2023/11/29 07:17:19;;;;;;;15.27;10.77;;;3.90;96.90;;;;;;10459206;28;20215;-63
2023/11/29 07:22:24;;;;;;;14.40;11.40;;;3.90;97.20;;;;;;10448125;28;20230;-63
2023/11/29 07:27:28;;;;;;;14.83;11.23;;;3.90;97.00;;;;;;10452717;28;20207;-62
2023/11/29 07:32:33;;;;;;;16.63;12.10;;;3.90;97.10;;;;;;10449126;28;20227;-62
2023/11/29 07:37:37;;;;;;;15.33;11.80;;;3.90;97.10;;;;;;10453636;28;20255;-63
2023/11/29 07:42:40;;;;;;;13.77;11.30;;;4.00;97.60;;;;;;10461417;28;20223;-63
2023/11/29 07:47:45;;;;;;;15.93;12.50;;;4.10;97.80;;;;;;10450710;28;20203;-65
2023/11/29 07:52:49;;;;;;;15.67;11.43;;;4.10;97.10;;;;;;10419526;28;20749;-65
2023/11/29 07:57:53;;;;;;;19.77;14.07;;;4.10;97.20;;;;;;10457637;28;20675;-63
2023/11/29 08:02:58;;;;;;;16.20;11.73;;;4.10;97.40;;;;;;10456911;28;20601;-63
2023/11/29 08:08:02;;;;;;;18.57;12.80;;;4.10;97.60;;;;;;10453255;28;20253;-64
2023/11/29 08:13:06;;;;;;;13.03;11.00;;;4.10;97.60;;;;;;10456003;28;20221;-63
2023/11/29 08:18:12;;;;;;;18.20;12.23;;;4.10;98.60;;;;;;10456808;28;20202;-63
2023/11/29 08:23:17;;;;;;;14.77;10.33;;;4.20;98.40;;;;;;10473370;28;20203;-62
2023/11/29 08:28:20;;;;;;;12.97;10.27;;;4.20;98.40;;;;;;10497673;28;20206;-63
2023/11/29 08:33:26;;;;;;;12.90;10.77;;;4.20;98.80;;;;;;10497700;28;20217;-63
2023/11/29 08:38:30;;;;;;;13.63;10.50;;;4.20;98.40;;;;;;10468180;28;20203;-64
2023/11/29 08:43:33;;;;;;;11.20;9.97;;;4.20;98.50;;;;;;10467054;28;20598;-63
2023/11/29 08:48:38;;;;;;;12.13;9.23;;;4.10;98.50;;;;;;10465975;28;20573;-63
2023/11/29 08:53:42;;;;;;;11.27;9.53;;;4.10;98.80;;;;;;10477164;28;20222;-63
2023/11/29 08:58:48;;;;;;;10.27;9.17;;;4.10;98.10;;;;;;10440449;28;20204;-62
2023/11/29 09:03:53;;;;;;;12.43;9.20;;;4.10;98.30;;;;;;10455256;28;20298;-63
2023/11/29 09:08:58;;;;;;;10.00;8.30;;;4.00;98.20;;;;;;10453023;28;20196;-62
2023/11/29 09:14:02;;;;;;;14.70;9.37;;;4.10;98.60;;;;;;10453279;28;20282;-61
2023/11/29 09:19:08;;;;;;;11.00;8.97;;;4.10;98.40;;;;;;10438170;28;20250;-61
2023/11/29 09:24:12;;;;;;;10.33;8.70;;;4.10;98.20;;;;;;10457106;28;20626;-62
2023/11/29 09:29:15;;;;;;;11.20;9.20;;;4.10;98.30;;;;;;10459080;28;20206;-63
2023/11/29 09:34:22;;;;;;;12.30;10.27;;;4.10;98.00;;;;;;10453343;28;20302;-69
2023/11/29 09:39:26;;;;;;;11.27;9.20;;;4.20;98.10;;;;;;10459540;28;20223;-63
2023/11/29 09:44:31;;;;;;;12.53;9.47;;;4.20;98.10;;;;;;10465816;28;20226;-61
2023/11/29 09:49:36;;;;;;;10.20;9.07;;;4.20;98.00;;;;;;10471386;28;20742;-63
2023/11/29 09:54:40;;;;;;;15.50;9.67;;;4.20;98.00;;;;;;10448587;28;20203;-66
2023/11/29 09:59:43;;;;;;;13.80;10.40;;;4.30;98.00;;;;;;10458278;28;20210;-63
2023/11/29 10:04:49;;;;;;;13.47;10.40;;;4.30;97.90;;;;;;10460974;28;20232;-62
2023/11/29 10:09:53;;;;;;;11.23;9.97;;;4.30;97.90;;;;;;10456200;28;20237;-63
2023/11/29 10:14:56;;;;;;;12.03;9.50;;;4.40;98.10;;;;;;10451873;28;20619;-62
2023/11/29 10:20:12;;;;;;;10.70;9.60;;;4.40;97.90;;;;;;10448827;28;20253;-64
2023/11/29 10:25:19;;;;;;;10.80;9.10;;;4.40;97.80;;;;;;10461053;28;20268;-65
2023/11/29 10:30:23;;;;;;;9.37;8.40;;;4.50;97.60;;;;;;10460266;28;20223;-65
2023/11/29 10:35:32;;;;;;;12.80;9.43;;;4.50;97.50;;;;;;10405397;28;20204;-65
2023/11/29 10:40:36;;;;;;;10.90;8.33;;;4.40;97.50;;;;;;10449108;28;20271;-65
2023/11/29 10:45:43;;;;;;;12.93;9.90;;;4.50;98.20;;;;;;10461338;28;20257;-63
2023/11/29 10:50:49;;;;;;;12.20;9.87;;;4.50;97.50;;;;;;10459849;28;20281;-63
2023/11/29 10:55:52;;;;;;;10.80;7.93;;;4.60;97.50;;;;;;10459875;28;20208;-64
2023/11/29 11:00:57;;;;;;;10.70;7.70;;;4.50;97.20;;;;;;10458501;28;20274;-63
2023/11/29 11:06:36;;;;;;;7.77;6.80;;;4.60;97.70;;;;;;10452381;28;20527;-65
2023/11/29 11:11:44;;;;;;;10.83;7.53;;;4.60;96.90;;;;;;10454684;28;20216;-65
2023/11/29 11:16:59;;;;;;;12.73;7.40;;;4.60;96.90;;;;;;10466277;28;20207;-65
2023/11/29 11:22:07;;;;;;;10.43;7.63;;;4.70;97.10;;;;;;10465768;28;20692;-65
2023/11/29 11:27:15;;;;;;;7.47;6.27;;;4.80;96.50;;;;;;10462097;28;20248;-64
2023/11/29 11:32:33;;;;;;;9.13;6.67;;;4.80;96.00;;;;;;10451637;28;20225;-64
2023/11/29 11:37:39;;;;;;;9.63;6.50;;;4.80;96.10;;;;;;10453183;28;20248;-64
2023/11/29 11:42:43;;;;;;;9.07;6.60;;;4.90;95.80;;;;;;10451272;28;20227;-64
2023/11/29 11:47:50;;;;;;;9.87;6.93;;;4.90;95.70;;;;;;10462069;28;20229;-65
2023/11/29 11:52:59;;;;;;;11.43;5.20;;;4.90;95.70;;;;;;10452575;28;20671;-65
2023/11/29 11:58:04;;;;;;;6.33;4.63;;;4.90;95.20;;;;;;10458691;28;20622;-64
2023/11/29 12:03:09;;;;;;;12.67;6.00;;;5.00;95.60;;;;;;10451662;28;20247;-65
2023/11/29 12:08:14;;;;;;;5.80;3.90;;;4.90;94.90;;;;;;10455309;28;20202;-63
2023/11/29 12:13:18;;;;;;;5.93;3.87;;;5.00;95.00;;;;;;10450722;28;20273;-65
2023/11/29 12:18:24;;;;;;;4.93;3.93;;;5.00;94.20;;;;;;10454899;28;20256;-65
2023/11/29 12:23:30;;;;;;;4.67;3.10;;;5.10;93.20;;;;;;10456782;28;20281;-65
2023/11/29 12:28:33;;;;;;;6.07;3.00;;;5.10;92.70;;;;;;10457066;28;20204;-63
2023/11/29 12:33:38;;;;;;;6.10;3.17;;;5.10;93.90;;;;;;10454738;28;20226;-69
2023/11/29 12:38:49;;;;;;;5.37;3.90;;;5.20;93.50;;;;;;10454352;28;20261;-63
2023/11/29 12:43:53;;;;;;;8.27;5.10;;;5.20;92.90;;;;;;10457007;28;20225;-64
2023/11/29 12:48:57;;;;;;;8.97;6.70;;;5.20;94.50;;;;;;10452328;28;20202;-63
2023/11/29 12:54:04;;;;;;;9.43;6.87;;;5.30;94.20;;;;;;10453922;28;20694;-66
2023/11/29 12:59:25;;;;;;;8.80;6.70;;;5.30;94.20;;;;;;10453762;28;20254;-65
2023/11/29 13:04:29;;;;;;;8.43;6.50;;;5.30;94.30;;;;;;10453269;28;20232;-66
2023/11/29 13:09:34;;;;;;;8.70;6.07;;;5.30;94.10;;;;;;10452435;28;20599;-67
2023/11/29 13:14:41;;;;;;;6.40;5.30;;;5.30;93.30;;;;;;10445733;28;20219;-67
2023/11/29 13:19:46;;;;;;;7.60;5.80;;;5.20;93.40;;;;;;10457432;28;20255;-67
2023/11/29 13:24:51;;;;;;;6.03;5.40;;;5.10;93.10;;;;;;10451214;28;20229;-67
2023/11/29 13:29:54;;;;;;;5.37;4.00;;;5.10;93.20;;;;;;10456709;28;20201;-67
2023/11/29 13:34:58;;;;;;;6.93;4.40;;;5.10;92.20;;;;;;10452126;28;20262;-68
2023/11/29 13:40:03;;;;;;;7.97;5.33;;;5.10;92.70;;;;;;10446545;28;20730;-63
2023/11/29 13:45:08;;;;;;;7.23;5.43;;;5.20;93.30;;;;;;10463238;28;20228;-63
2023/11/29 13:50:12;;;;;;;6.70;5.70;;;5.20;92.80;;;;;;10454744;28;20219;-63
2023/11/29 13:55:17;;;;;;;11.20;6.67;;;5.20;93.70;;;;;;10459530;28;20632;-62
2023/11/29 14:00:22;;;;;;;7.20;6.30;;;5.30;94.10;;;;;;10452370;28;20705;-63
2023/11/29 14:05:25;;;;;;;9.97;6.87;;;5.30;94.50;;;;;;10455668;28;20271;-62
2023/11/29 14:10:30;;;;;;;9.03;6.33;;;5.40;95.40;;;;;;10447293;28;20703;-62
2023/11/29 14:15:34;;;;;;;9.23;6.80;;;5.50;94.80;;;;;;10457711;28;20249;-64
2023/11/29 14:20:39;;;;;;;9.97;7.37;;;5.50;95.10;;;;;;10460484;28;20653;-65
2023/11/29 14:25:44;;;;;;;8.90;7.87;;;5.60;95.30;;;;;;10449185;28;20673;-67
2023/11/29 14:30:48;;;;;;;7.93;6.77;;;5.60;95.30;;;;;;10455551;28;20270;-66
2023/11/29 14:35:52;;;;;;;11.73;7.43;;;5.70;94.90;;;;;;10446641;28;20576;-66
2023/11/29 14:40:57;;;;;;;9.43;7.60;;;5.70;95.30;;;;;;10447237;28;20250;-66
2023/11/29 14:46:14;;;;;;;10.93;7.10;;;5.70;94.40;;;;;;10446966;28;20685;-67
2023/11/29 14:51:18;;;;;;;10.13;6.80;;;5.70;94.20;;;;;;10447228;28;20280;-65
2023/11/29 14:56:23;;;;;;;11.07;7.80;;;5.70;95.10;;;;;;10460123;28;20246;-64
2023/11/29 15:01:31;;;;;;;8.30;6.50;;;5.70;94.30;;;;;;10444813;28;20222;-65
2023/11/29 15:06:35;;;;;;;10.30;6.47;;;5.80;94.30;;;;;;10453006;28;20787;-66
2023/11/29 15:11:40;;;;;;;8.13;4.80;;;5.80;95.00;;;;;;10455800;28;20271;-66
2023/11/29 15:16:44;;;;;;;8.47;4.77;;;5.80;94.20;;;;;;10458253;28;20205;-65
2023/11/29 15:21:47;;;;;;;7.07;4.20;;;5.80;94.10;;;;;;10451971;28;20604;-63
2023/11/29 15:26:52;;;;;;;8.13;3.93;;;5.80;94.00;;;;;;10456076;28;20224;-67
2023/11/29 15:32:02;;;;;;;6.67;4.30;;;5.70;93.60;;;;;;10447292;28;20253;-65
2023/11/29 15:37:05;;;;;;;5.50;4.40;;;5.70;94.10;;;;;;10456528;28;20201;-65
2023/11/29 15:42:11;;;;;;;7.70;4.07;;;5.60;94.40;;;;;;10456041;28;20273;-66
2023/11/29 15:47:14;;;;;;;9.97;5.00;;;5.60;94.30;;;;;;10451334;28;20221;-66
2023/11/29 15:52:18;;;;;;;7.90;4.37;;;5.60;93.80;;;;;;10456497;28;20226;-66
2023/11/29 15:57:23;;;;;;;9.87;5.63;;;5.60;93.80;;;;;;10450485;28;20206;-65
2023/11/29 16:02:28;;;;;;;8.97;6.07;;;5.60;93.70;;;;;;10450670;28;20222;-65
2023/11/29 16:07:33;;;;;;;8.47;5.13;;;5.60;94.00;;;;;;10456136;28;20762;-65
2023/11/29 16:12:38;;;;;;;10.07;6.70;;;5.60;93.80;;;;;;10450620;28;20222;-67
2023/11/29 16:17:41;;;;;;;8.10;6.43;;;5.60;94.20;;;;;;10450476;28;20579;-66
2023/11/29 16:22:45;;;;;;;10.53;6.90;;;5.60;94.00;;;;;;10448152;28;20217;-67
2023/11/29 16:27:50;;;;;;;12.87;8.60;;;5.60;94.20;;;;;;10454381;28;20205;-68
2023/11/29 16:32:54;;;;;;;17.43;12.60;;;5.60;94.10;;;;;;10451027;28;20230;-66
2023/11/29 16:37:58;;;;;;;11.77;8.07;;;5.60;94.30;;;;;;10453821;28;20520;-67
2023/11/29 16:43:03;;;;;;;11.30;7.20;;;5.60;94.50;;;;;;10457030;28;20218;-67
2023/11/29 16:48:07;;;;;;;9.70;8.68;;;5.60;95.00;;;;;;10447755;28;20493;-64
2023/11/29 16:53:11;;;;;;;9.87;8.63;;;5.60;94.50;;;;;;10449985;28;20351;-64
2023/11/29 16:58:29;;;;;;;11.20;7.30;;;5.70;94.60;;;;;;10446614;28;20205;-62
2023/11/29 17:03:32;;;;;;;15.30;9.63;;;5.70;94.50;;;;;;10442130;28;20284;-64
2023/11/29 17:08:36;;;;;;;14.53;10.07;;;5.60;94.90;;;;;;10447950;28;20206;-63
2023/11/29 17:13:41;;;;;;;15.47;10.00;;;5.60;94.70;;;;;;10441675;28;20271;-63
2023/11/29 17:18:45;;;;;;;14.03;10.47;;;5.60;94.70;;;;;;10452692;28;20354;-64
2023/11/29 17:23:49;;;;;;;13.37;9.63;;;5.60;94.90;;;;;;10449144;28;20243;-63
2023/11/29 17:28:54;;;;;;;10.70;9.43;;;5.60;94.90;;;;;;10444982;28;20200;-63
2023/11/29 17:33:58;;;;;;;14.27;10.83;;;5.50;94.90;;;;;;10449081;28;20268;-63
2023/11/29 17:39:02;;;;;;;11.67;10.13;;;5.50;95.00;;;;;;10442491;28;20196;-64
2023/11/29 17:44:08;;;;;;;12.90;10.83;;;5.50;95.00;;;;;;10455694;28;20225;-63
2023/11/29 17:49:11;;;;;;;16.27;12.50;;;5.40;95.20;;;;;;10447384;28;20202;-64
2023/11/29 17:54:15;;;;;;;13.93;10.13;;;5.30;95.40;;;;;;10450749;28;20739;-63
2023/11/29 17:59:20;;;;;;;14.70;10.47;;;5.30;95.70;;;;;;10451544;28;20205;-63
2023/11/29 18:04:25;;;;;;;11.53;10.20;;;5.30;95.30;;;;;;10448295;28;20246;-64
2023/11/29 18:09:28;;;;;;;14.00;10.47;;;5.30;95.40;;;;;;10447609;28;20200;-65
2023/11/29 18:14:33;;;;;;;13.13;10.63;;;5.30;95.40;;;;;;10445114;28;20225;-64
2023/11/29 18:19:37;;;;;;;14.93;11.47;;;5.30;95.30;;;;;;10445956;28;20207;-63
2023/11/29 18:24:41;;;;;;;15.23;11.37;;;5.30;95.30;;;;;;10444787;28;20219;-63
2023/11/29 18:29:46;;;;;;;14.87;11.23;;;5.30;95.20;;;;;;10442202;28;20246;-64
2023/11/29 18:34:49;;;;;;;16.27;10.93;;;5.30;95.30;;;;;;10446371;28;20267;-63
2023/11/29 18:39:53;;;;;;;17.80;11.60;;;5.30;95.30;;;;;;10451681;28;20201;-63
2023/11/29 18:44:58;;;;;;;15.60;11.83;;;5.30;95.20;;;;;;10459375;28;20220;-63
2023/11/29 18:50:02;;;;;;;15.40;11.77;;;5.20;95.30;;;;;;10447323;28;20217;-64
2023/11/29 18:55:06;;;;;;;32.63;19.43;;;5.20;95.40;;;;;;10449680;28;20207;-65
2023/11/29 19:00:13;;;;;;;46.70;27.30;;;5.20;95.30;;;;;;10446523;28;20222;-64
2023/11/29 19:05:17;;;;;;;25.73;18.80;;;5.20;95.20;;;;;;10450885;28;20600;-64
2023/11/29 19:10:21;;;;;;;20.03;14.60;;;5.10;95.20;;;;;;10453028;28;20600;-64
2023/11/29 19:15:25;;;;;;;16.63;12.77;;;5.10;95.10;;;;;;10452640;28;20201;-63
2023/11/29 19:20:29;;;;;;;16.90;13.30;;;5.10;95.10;;;;;;10448647;28;20225;-65
2023/11/29 19:25:33;;;;;;;17.43;12.97;;;5.00;95.10;;;;;;10450927;28;20267;-64
2023/11/29 19:30:38;;;;;;;21.27;14.73;;;5.00;95.10;;;;;;10442470;28;20221;-63
2023/11/29 19:35:41;;;;;;;20.03;15.37;;;4.90;95.30;;;;;;10446146;28;20260;-68
2023/11/29 19:40:45;;;;;;;22.50;17.23;;;4.90;95.00;;;;;;10449542;28;20224;-64
2023/11/29 19:45:50;;;;;;;20.10;16.47;;;4.80;95.00;;;;;;10446006;28;20218;-67
2023/11/29 19:50:55;;;;;;;21.97;16.90;;;4.80;95.00;;;;;;10445493;28;20280;-63
2023/11/29 19:55:58;;;;;;;18.23;15.67;;;4.70;94.90;;;;;;10441681;28;20201;-64
2023/11/29 20:01:03;;;;;;;19.97;15.93;;;4.70;94.90;;;;;;10433994;28;20278;-65
2023/11/29 20:06:08;;;;;;;20.40;16.43;;;4.60;94.90;;;;;;10455632;28;20221;-65
2023/11/29 20:11:12;;;;;;;21.07;15.87;;;4.60;94.90;;;;;;10450260;28;20224;-65
2023/11/29 20:16:18;;;;;;;20.50;15.43;;;4.50;94.80;;;;;;10453365;28;20201;-65
2023/11/29 20:21:21;;;;;;;18.67;15.27;;;4.50;94.80;;;;;;10441834;28;20251;-64
2023/11/29 20:26:25;;;;;;;19.13;15.77;;;4.50;94.90;;;;;;10431892;28;20222;-65
2023/11/29 20:31:30;;;;;;;18.63;15.03;;;4.40;94.80;;;;;;10445974;28;20223;-65
2023/11/29 20:36:33;;;;;;;18.90;15.37;;;4.50;94.90;;;;;;10448509;28;20192;-65
2023/11/29 20:41:37;;;;;;;18.87;15.57;;;4.40;94.80;;;;;;10451390;28;20278;-64
2023/11/29 20:46:42;;;;;;;19.03;14.77;;;4.40;94.80;;;;;;10454108;28;20655;-64
2023/11/29 20:51:47;;;;;;;17.97;15.93;;;4.40;94.80;;;;;;10446906;28;20219;-64
2023/11/29 20:56:50;;;;;;;19.63;16.40;;;4.30;94.70;;;;;;10452189;28;20686;-65
2023/11/29 21:01:55;;;;;;;18.57;15.63;;;4.30;94.60;;;;;;10442646;28;20216;-65
2023/11/29 21:07:00;;;;;;;20.63;15.63;;;4.30;94.70;;;;;;10438694;28;20288;-64
2023/11/29 21:12:04;;;;;;;18.87;16.30;;;4.20;94.70;;;;;;10453011;28;20222;-65
2023/11/29 21:17:09;;;;;;;18.37;15.73;;;4.20;94.70;;;;;;10418576;28;20194;-63
2023/11/29 21:22:12;;;;;;;21.47;16.77;;;4.20;94.70;;;;;;10445501;28;20223;-64
2023/11/29 21:27:19;;;;;;;20.03;16.60;;;4.20;94.70;;;;;;10434943;28;20221;-65
2023/11/29 21:32:24;;;;;;;20.20;16.77;;;4.20;94.60;;;;;;10410677;28;20251;-64
2023/11/29 21:37:28;;;;;;;21.83;18.03;;;4.10;94.50;;;;;;10451720;28;20576;-63
2023/11/29 21:42:31;;;;;;;22.47;17.80;;;4.20;94.70;;;;;;10454268;28;20245;-65
2023/11/29 21:47:36;;;;;;;19.57;17.37;;;4.10;94.60;;;;;;10444105;28;20757;-64
2023/11/29 21:52:40;;;;;;;20.67;17.73;;;4.10;94.60;;;;;;10455756;28;20270;-65
2023/11/29 21:57:44;;;;;;;19.23;16.10;;;4.10;94.50;;;;;;10455114;28;20206;-66
2023/11/29 22:02:49;;;;;;;20.50;16.30;;;4.10;94.60;;;;;;10449014;28;20708;-65
2023/11/29 22:07:53;;;;;;;19.23;15.80;;;4.10;94.60;;;;;;10457614;28;20223;-65
2023/11/29 22:12:56;;;;;;;22.40;16.93;;;4.10;94.40;;;;;;10447347;28;20220;-64
2023/11/29 22:18:01;;;;;;;24.43;18.80;;;4.00;94.50;;;;;;10467021;28;20202;-64
2023/11/29 22:23:05;;;;;;;26.07;19.73;;;4.00;94.60;;;;;;10459176;28;20303;-65
2023/11/29 22:28:09;;;;;;;21.50;16.67;;;4.10;94.60;;;;;;10467900;28;20237;-66
2023/11/29 22:33:14;;;;;;;22.77;17.57;;;4.10;94.50;;;;;;10462157;28;20253;-65
2023/11/29 22:38:17;;;;;;;26.07;17.77;;;4.00;94.50;;;;;;10411471;28;20260;-65
2023/11/29 22:43:21;;;;;;;22.70;18.23;;;4.00;94.60;;;;;;10452573;28;20230;-65
2023/11/29 22:48:26;;;;;;;24.30;17.77;;;4.00;95.00;;;;;;10459491;28;20223;-65
2023/11/29 22:53:30;;;;;;;26.27;20.50;;;4.00;94.70;;;;;;10457893;28;20273;-64
2023/11/29 22:58:34;;;;;;;30.13;21.63;;;4.00;94.70;;;;;;10441673;28;20647;-65
2023/11/29 23:03:39;;;;;;;26.43;21.13;;;4.00;94.80;;;;;;10450339;28;20293;-65
2023/11/29 23:08:42;;;;;;;26.23;19.67;;;4.10;94.70;;;;;;10456361;28;20214;-65
2023/11/29 23:13:46;;;;;;;27.50;19.77;;;4.00;94.60;;;;;;10458190;28;20257;-64
2023/11/29 23:18:51;;;;;;;25.17;20.13;;;4.00;94.70;;;;;;10455104;28;20199;-65
2023/11/29 23:23:54;;;;;;;25.40;20.40;;;4.10;94.70;;;;;;10454495;28;20280;-65
2023/11/29 23:28:58;;;;;;;27.93;20.57;;;4.00;95.00;;;;;;10450181;28;20218;-64
2023/11/29 23:34:03;;;;;;;23.40;19.53;;;4.00;94.70;;;;;;10442296;28;20272;-65
2023/11/29 23:39:07;;;;;;;25.90;19.27;;;4.00;94.60;;;;;;10454958;28;20250;-65
2023/11/29 23:44:11;;;;;;;22.57;18.63;;;4.00;94.60;;;;;;10451851;28;20278;-64
2023/11/29 23:49:15;;;;;;;24.93;19.20;;;3.90;94.30;;;;;;10442595;28;20655;-64
2023/11/29 23:54:19;;;;;;;30.47;22.90;;;3.90;94.20;;;;;;10448824;28;20230;-64
2023/11/29 23:59:23;;;;;;;28.60;22.43;;;3.80;94.30;;;;;;10457836;28;20566;-65
